Time;durP1;ratioP1;P1;durP2;ratioP2;P2;SDS_P1;SDS_P2;PMS_P1;PMS_P2;Temp;Humidity;BMP_temperature;BMP_pressure;BME280_temperature;BME280_humidity;BME280_pressure;Samples;Min_cycle;Max_cycle;Signal;HPM_P1;HPM_P2
2022/05/21 00:00:16;;;;;;;4.50;3.38;;;19.10;99.90;;;;;;5065284;28;20209;-68
2022/05/21 00:02:41;;;;;;;5.30;3.00;;;19.00;99.90;;;;;;5053873;28;20181;-68
2022/05/21 00:05:08;;;;;;;4.97;3.20;;;18.90;99.90;;;;;;5055768;28;20177;-68
2022/05/21 00:07:34;;;;;;;2.60;2.33;;;18.80;99.90;;;;;;5066071;28;20201;-68
2022/05/21 00:09:59;;;;;;;3.40;2.33;;;18.90;99.90;;;;;;5061250;28;20299;-67
2022/05/21 00:12:25;;;;;;;4.18;2.65;;;18.80;99.90;;;;;;5054638;28;20789;-68
2022/05/21 00:14:55;;;;;;;3.35;2.20;;;18.70;99.90;;;;;;5054803;28;20178;-68
2022/05/21 00:17:20;;;;;;;2.72;2.15;;;18.80;99.90;;;;;;5060342;28;20695;-67
2022/05/21 00:19:46;;;;;;;4.10;2.60;;;18.90;99.90;;;;;;5060668;28;20213;-68
2022/05/21 00:22:12;;;;;;;6.70;2.30;;;18.90;99.90;;;;;;5054050;28;20185;-68
2022/05/21 00:24:37;;;;;;;4.78;2.20;;;19.00;99.90;;;;;;5069091;28;20188;-68
2022/05/21 00:27:03;;;;;;;2.95;2.13;;;19.10;99.90;;;;;;5054077;28;20192;-69
2022/05/21 00:29:29;;;;;;;2.40;2.20;;;19.30;99.90;;;;;;5058023;28;20246;-68
2022/05/21 00:31:55;;;;;;;3.95;2.22;;;19.40;99.90;;;;;;5063283;28;20178;-69
2022/05/21 00:34:22;;;;;;;4.55;2.58;;;19.50;99.90;;;;;;5073884;28;20188;-69
2022/05/21 00:36:47;;;;;;;2.38;2.17;;;19.60;99.90;;;;;;5073604;28;20177;-68
2022/05/21 00:39:13;;;;;;;3.63;2.67;;;19.60;99.90;;;;;;5064840;28;20243;-69
2022/05/21 00:41:39;;;;;;;2.70;2.50;;;19.50;99.90;;;;;;5057401;28;20709;-68
2022/05/21 00:44:06;;;;;;;4.35;2.58;;;19.50;99.90;;;;;;5054129;28;20212;-68
2022/05/21 00:46:34;;;;;;;4.80;2.70;;;19.50;99.90;;;;;;5059193;28;20181;-68
2022/05/21 00:49:31;;;;;;;2.58;2.38;;;19.20;99.90;;;;;;5053617;28;20177;-67
2022/05/21 00:52:17;;;;;;;3.47;2.55;;;19.00;99.90;;;;;;5040574;28;20282;-67
2022/05/21 00:54:50;;;;;;;4.22;2.80;;;18.80;99.90;;;;;;5060728;28;20174;-67
2022/05/21 00:57:25;;;;;;;2.50;2.30;;;18.90;99.90;;;;;;5069118;28;20268;-67
2022/05/21 00:59:56;;;;;;;2.40;2.20;;;19.00;99.90;;;;;;5060683;28;20856;-67
2022/05/21 01:02:35;;;;;;;4.03;2.30;;;18.80;99.90;;;;;;5073365;28;20181;-66
2022/05/21 01:05:03;;;;;;;5.32;2.15;;;18.60;99.90;;;;;;5073169;28;20196;-66
2022/05/21 01:07:29;;;;;;;2.55;1.83;;;18.40;99.90;;;;;;5072964;28;20251;-66
2022/05/21 01:09:57;;;;;;;4.53;2.17;;;18.10;99.90;;;;;;5072724;28;20204;-66
2022/05/21 01:12:31;;;;;;;2.35;2.10;;;17.90;99.90;;;;;;5057441;28;20204;-66
2022/05/21 01:15:00;;;;;;;3.13;1.95;;;17.70;99.90;;;;;;5056809;28;20537;-65
2022/05/21 01:17:26;;;;;;;3.25;2.10;;;17.60;99.90;;;;;;5063040;28;20319;-66
2022/05/21 01:20:13;;;;;;;1.92;1.80;;;17.40;99.90;;;;;;5067857;28;20217;-66
2022/05/21 01:22:50;;;;;;;2.10;1.88;;;17.30;99.90;;;;;;5052697;28;20652;-66
2022/05/21 01:25:23;;;;;;;3.63;2.00;;;17.30;99.90;;;;;;5061691;28;20224;-65
2022/05/21 01:27:52;;;;;;;2.25;2.00;;;17.20;99.90;;;;;;5047674;28;20185;-67
2022/05/21 01:30:20;;;;;;;1.80;1.70;;;17.10;99.90;;;;;;5053140;28;20656;-67
2022/05/21 01:32:48;;;;;;;5.35;2.08;;;17.00;99.90;;;;;;5052465;28;20190;-67
2022/05/21 01:35:15;;;;;;;2.35;2.05;;;17.00;99.90;;;;;;5053139;28;20182;-67
2022/05/21 01:37:41;;;;;;;3.72;1.90;;;16.90;99.90;;;;;;5055771;28;20181;-66
2022/05/21 01:40:09;;;;;;;2.72;1.75;;;16.80;99.90;;;;;;5068610;28;20561;-67
2022/05/21 01:42:35;;;;;;;3.97;2.00;;;16.80;99.90;;;;;;5059955;28;20226;-66
2022/05/21 01:45:01;;;;;;;3.25;2.35;;;16.80;99.90;;;;;;5059915;28;20542;-66
2022/05/21 01:47:29;;;;;;;2.50;2.30;;;16.80;99.90;;;;;;5053411;28;20185;-66
2022/05/21 01:49:55;;;;;;;4.63;2.22;;;16.80;99.90;;;;;;5064886;28;20637;-67
2022/05/21 01:52:20;;;;;;;2.75;2.05;;;16.70;99.90;;;;;;5060321;28;20183;-66
2022/05/21 01:54:46;;;;;;;2.58;2.15;;;16.70;99.90;;;;;;5057471;28;20179;-66
2022/05/21 01:57:12;;;;;;;2.45;2.05;;;16.60;99.90;;;;;;5059705;28;20185;-67
2022/05/21 01:59:38;;;;;;;3.15;2.22;;;16.60;99.90;;;;;;5072485;28;20216;-67
2022/05/21 02:02:04;;;;;;;3.67;2.10;;;16.60;99.90;;;;;;5072133;28;20183;-66
2022/05/21 02:04:30;;;;;;;4.25;2.13;;;16.50;99.90;;;;;;5072061;28;20208;-66
2022/05/21 02:06:55;;;;;;;4.82;2.35;;;16.50;99.90;;;;;;5072475;28;20720;-66
2022/05/21 02:09:21;;;;;;;5.18;2.20;;;16.50;99.90;;;;;;5072953;28;20192;-67
2022/05/21 02:11:47;;;;;;;3.40;2.20;;;16.50;99.90;;;;;;5095554;28;20181;-66
2022/05/21 02:14:13;;;;;;;2.72;2.00;;;16.50;99.90;;;;;;5075661;28;20184;-67
2022/05/21 02:16:39;;;;;;;2.67;1.90;;;16.50;99.90;;;;;;5064991;28;20212;-67
2022/05/21 02:19:06;;;;;;;2.75;2.20;;;16.40;99.90;;;;;;5071568;28;20223;-66
2022/05/21 02:21:33;;;;;;;4.80;2.42;;;16.30;99.90;;;;;;5060706;28;20185;-66
2022/05/21 02:23:59;;;;;;;2.55;2.33;;;16.10;99.90;;;;;;5058936;28;20636;-66
2022/05/21 02:26:25;;;;;;;2.90;2.28;;;16.00;99.90;;;;;;5052686;28;20188;-66
2022/05/21 02:28:51;;;;;;;3.47;2.40;;;15.90;99.90;;;;;;5060272;28;20192;-66
2022/05/21 02:31:17;;;;;;;3.95;2.28;;;15.80;99.90;;;;;;5058357;28;20185;-66
2022/05/21 02:33:46;;;;;;;4.53;2.63;;;15.70;99.90;;;;;;5060039;28;20522;-66
2022/05/21 02:36:11;;;;;;;2.35;2.08;;;15.60;99.90;;;;;;5060089;28;20266;-66
2022/05/21 02:41:22;;;;;;;2.38;2.17;;;15.40;99.90;;;;;;5053510;28;20278;-66
2022/05/21 02:43:48;;;;;;;2.30;2.10;;;15.40;99.90;;;;;;5052233;28;20656;-66
2022/05/21 02:46:15;;;;;;;2.33;2.13;;;15.40;99.90;;;;;;5062104;28;20268;-66
2022/05/21 02:48:41;;;;;;;2.70;1.95;;;15.30;99.90;;;;;;5058271;28;20185;-66
2022/05/21 02:51:09;;;;;;;2.20;2.00;;;15.20;99.90;;;;;;5053797;28;20191;-66
2022/05/21 02:53:36;;;;;;;2.08;1.98;;;15.20;99.90;;;;;;5057712;28;20189;-66
2022/05/21 02:56:10;;;;;;;3.28;2.00;;;15.10;99.90;;;;;;5064356;28;20181;-66
2022/05/21 02:58:36;;;;;;;3.35;1.80;;;15.00;99.90;;;;;;5054147;28;20220;-66
2022/05/21 03:01:02;;;;;;;2.03;1.80;;;15.00;99.90;;;;;;5051226;28;20192;-65
2022/05/21 03:03:27;;;;;;;2.47;2.28;;;15.00;99.90;;;;;;5062663;28;20268;-66
2022/05/21 03:05:53;;;;;;;5.07;2.40;;;15.00;99.90;;;;;;5052583;28;20177;-66
2022/05/21 03:11:03;;;;;;;2.63;2.20;;;14.90;99.90;;;;;;5062895;28;20709;-66
2022/05/21 03:13:29;;;;;;;1.95;1.85;;;14.90;99.90;;;;;;5054218;28;20181;-65
2022/05/21 03:15:56;;;;;;;2.35;2.17;;;14.90;99.90;;;;;;5055848;28;20183;-67
2022/05/21 03:18:22;;;;;;;3.45;2.83;;;14.90;99.90;;;;;;5064352;28;20680;-66
2022/05/21 03:20:48;;;;;;;3.30;2.00;;;14.90;99.90;;;;;;5064564;28;20247;-66
2022/05/21 03:23:14;;;;;;;2.97;2.20;;;14.90;99.90;;;;;;5054130;28;20178;-66
2022/05/21 03:25:40;;;;;;;6.95;2.25;;;14.90;99.90;;;;;;5052622;28;20212;-66
2022/05/21 03:28:06;;;;;;;2.80;2.00;;;14.80;99.90;;;;;;5054465;28;20589;-66
2022/05/21 03:30:32;;;;;;;2.70;2.50;;;14.80;99.90;;;;;;5050430;28;20180;-66
2022/05/21 03:32:58;;;;;;;4.05;2.35;;;14.80;99.90;;;;;;5052646;28;20181;-65
2022/05/21 03:35:25;;;;;;;3.08;2.50;;;14.70;99.90;;;;;;5054088;28;20244;-66
2022/05/21 03:37:51;;;;;;;3.10;2.53;;;14.70;99.90;;;;;;5073506;28;20789;-66
2022/05/21 03:40:20;;;;;;;3.50;3.17;;;14.70;99.90;;;;;;5071318;28;20231;-66
2022/05/21 03:42:45;;;;;;;3.67;3.03;;;14.60;99.90;;;;;;5054634;28;20272;-67
2022/05/21 03:45:12;;;;;;;5.88;3.33;;;14.50;99.90;;;;;;5056130;28;20304;-66
2022/05/21 03:47:41;;;;;;;4.75;2.90;;;14.40;99.90;;;;;;5054612;28;20264;-66
2022/05/21 03:50:15;;;;;;;4.10;3.20;;;14.40;99.90;;;;;;5066718;28;20279;-66
2022/05/21 03:52:41;;;;;;;3.65;2.90;;;14.30;99.90;;;;;;5052987;28;20177;-66
2022/05/21 03:55:07;;;;;;;3.65;3.17;;;14.30;99.90;;;;;;5059717;28;20516;-66
2022/05/21 03:57:33;;;;;;;4.53;3.15;;;14.20;99.90;;;;;;5064083;28;20173;-66
2022/05/21 03:59:59;;;;;;;3.92;3.10;;;14.20;99.90;;;;;;5053664;28;20224;-65
2022/05/21 04:02:25;;;;;;;6.93;3.33;;;14.20;99.90;;;;;;5053340;28;20695;-67
2022/05/21 04:04:51;;;;;;;4.22;3.40;;;14.20;99.90;;;;;;5070274;28;20192;-67
2022/05/21 04:07:17;;;;;;;4.20;3.72;;;14.20;99.90;;;;;;5066474;28;20181;-66
2022/05/21 04:09:43;;;;;;;5.82;3.70;;;14.10;99.90;;;;;;5074103;28;20184;-66
2022/05/21 04:12:09;;;;;;;4.75;3.58;;;14.10;99.90;;;;;;5056190;28;20277;-66
2022/05/21 04:14:34;;;;;;;5.60;3.88;;;14.00;99.90;;;;;;5062215;28;20178;-66
2022/05/21 04:17:02;;;;;;;5.82;3.15;;;14.00;99.90;;;;;;5073581;28;20278;-66
2022/05/21 04:19:29;;;;;;;5.65;3.78;;;14.00;99.90;;;;;;5073461;28;20251;-67
2022/05/21 04:21:56;;;;;;;4.90;3.97;;;14.00;99.90;;;;;;5060154;28;20177;-67
2022/05/21 04:24:22;;;;;;;4.93;3.55;;;14.00;99.90;;;;;;5053331;28;20185;-66
2022/05/21 04:26:48;;;;;;;4.70;4.15;;;13.90;99.90;;;;;;5054099;28;20679;-67
2022/05/21 04:29:15;;;;;;;4.72;4.00;;;13.90;99.90;;;;;;5055022;28;20716;-67
2022/05/21 04:31:41;;;;;;;5.30;4.25;;;14.00;99.90;;;;;;5060372;28;20192;-67
2022/05/21 04:34:06;;;;;;;4.45;3.90;;;14.10;99.90;;;;;;5066704;28;20562;-66
2022/05/21 04:36:32;;;;;;;4.07;3.67;;;14.30;99.90;;;;;;5073553;28;20181;-66
2022/05/21 04:38:58;;;;;;;3.72;3.40;;;14.40;99.90;;;;;;5073502;28;20245;-66
2022/05/21 04:41:25;;;;;;;4.05;3.65;;;14.60;99.90;;;;;;5058836;28;20181;-67
2022/05/21 04:43:51;;;;;;;4.10;3.70;;;14.80;99.90;;;;;;5067908;28;20177;-67
2022/05/21 04:46:18;;;;;;;7.80;4.25;;;15.00;99.90;;;;;;5071524;28;20628;-67
2022/05/21 04:48:45;;;;;;;7.47;3.60;;;15.10;99.90;;;;;;5073297;28;20189;-67
2022/05/21 04:51:11;;;;;;;3.67;3.25;;;15.30;99.90;;;;;;5071947;28;20180;-66
2022/05/21 04:53:37;;;;;;;5.85;3.70;;;15.30;99.90;;;;;;5067715;28;20188;-66
2022/05/21 04:56:04;;;;;;;3.70;3.40;;;15.50;99.90;;;;;;5064958;28;20222;-66
2022/05/21 04:58:29;;;;;;;4.40;3.47;;;15.70;99.90;;;;;;5052926;28;20181;-66
2022/05/21 05:00:55;;;;;;;5.07;3.90;;;15.90;99.90;;;;;;5069752;28;20188;-66
2022/05/21 05:03:21;;;;;;;3.85;3.53;;;15.80;99.90;;;;;;5053294;28;20205;-66
2022/05/21 05:05:47;;;;;;;4.20;3.30;;;15.90;99.90;;;;;;5068989;28;20181;-66
2022/05/21 05:08:15;;;;;;;4.40;3.55;;;16.10;99.90;;;;;;5059315;28;20752;-66
2022/05/21 05:10:45;;;;;;;3.47;3.08;;;16.40;99.90;;;;;;5072933;28;20188;-66
2022/05/21 05:13:10;;;;;;;4.18;3.08;;;16.70;99.90;;;;;;5059245;28;20263;-66
2022/05/21 05:15:36;;;;;;;5.13;3.50;;;17.20;99.90;;;;;;5060362;28;20276;-66
2022/05/21 05:18:08;;;;;;;3.25;2.95;;;17.40;99.90;;;;;;5053431;28;20220;-69
2022/05/21 05:20:35;;;;;;;4.68;3.13;;;17.70;99.90;;;;;;5055326;28;20224;-68
2022/05/21 05:23:00;;;;;;;3.25;2.95;;;17.90;99.90;;;;;;5059661;28;20241;-68
2022/05/21 05:25:26;;;;;;;4.28;2.92;;;18.30;99.90;;;;;;5072046;28;20180;-68
2022/05/21 05:27:52;;;;;;;4.53;3.00;;;18.40;99.90;;;;;;5057721;28;20188;-69
2022/05/21 05:30:19;;;;;;;2.72;2.53;;;18.70;99.90;;;;;;5072341;28;20173;-68
2022/05/21 05:32:45;;;;;;;3.30;2.90;;;18.90;99.90;;;;;;5072483;28;20271;-68
2022/05/21 05:35:12;;;;;;;3.15;2.45;;;19.20;99.90;;;;;;5072251;28;20586;-68
2022/05/21 05:37:38;;;;;;;3.55;2.95;;;19.50;99.90;;;;;;5072317;28;20177;-68
2022/05/21 05:40:06;;;;;;;3.00;2.70;;;19.30;99.30;;;;;;5072204;28;20354;-68
2022/05/21 05:42:33;;;;;;;2.70;2.30;;;19.40;99.50;;;;;;5068576;28;20200;-68
2022/05/21 05:44:59;;;;;;;2.90;2.60;;;19.60;99.40;;;;;;5065669;28;20181;-65
2022/05/21 05:47:27;;;;;;;3.95;2.55;;;19.60;99.50;;;;;;5056224;28;20174;-62
2022/05/21 05:49:53;;;;;;;3.92;2.50;;;19.80;98.70;;;;;;5057766;28;20177;-70
2022/05/21 05:52:18;;;;;;;3.08;2.78;;;19.80;98.10;;;;;;5070709;28;20173;-69
2022/05/21 05:54:44;;;;;;;2.47;2.28;;;20.00;98.20;;;;;;5059960;28;20246;-71
2022/05/21 05:57:10;;;;;;;3.35;2.60;;;20.30;97.80;;;;;;5071434;28;20196;-69
2022/05/21 05:59:50;;;;;;;3.28;2.50;;;20.10;97.20;;;;;;5059032;28;20223;-70
2022/05/21 06:05:07;;;;;;;2.40;2.20;;;20.50;97.50;;;;;;5048966;28;20207;-67
2022/05/21 06:07:33;;;;;;;2.40;2.20;;;21.10;96.70;;;;;;5052287;28;20195;-72
2022/05/21 06:10:04;;;;;;;2.28;2.00;;;21.20;95.80;;;;;;5060083;28;20291;-71
2022/05/21 06:12:31;;;;;;;2.78;2.25;;;21.20;94.70;;;;;;5067309;28;20172;-77
2022/05/21 06:14:57;;;;;;;5.75;2.10;;;21.20;94.60;;;;;;5065534;28;20238;-68
2022/05/21 06:17:23;;;;;;;6.68;2.30;;;21.00;94.40;;;;;;5071821;28;20228;-76
2022/05/21 06:19:48;;;;;;;3.03;2.60;;;21.00;94.40;;;;;;5059690;28;20577;-68
2022/05/21 06:22:14;;;;;;;3.03;1.88;;;20.90;94.80;;;;;;5061649;28;20203;-69
2022/05/21 06:24:39;;;;;;;2.75;2.20;;;21.40;94.30;;;;;;5051873;28;20327;-65
2022/05/21 06:27:06;;;;;;;1.80;1.70;;;21.80;92.50;;;;;;5053408;28;20235;-68
2022/05/21 06:29:32;;;;;;;4.85;1.70;;;21.80;92.10;;;;;;5051930;28;20199;-64
2022/05/21 06:31:57;;;;;;;2.20;1.63;;;21.70;91.70;;;;;;5058784;28;20185;-66
2022/05/21 06:34:24;;;;;;;2.03;1.45;;;21.60;91.70;;;;;;5051914;28;20182;-68
2022/05/21 06:36:49;;;;;;;3.00;1.65;;;21.50;90.50;;;;;;5052767;28;20181;-68
2022/05/21 06:39:15;;;;;;;4.53;1.63;;;21.60;91.50;;;;;;5065142;28;20730;-65
2022/05/21 06:41:41;;;;;;;3.33;1.83;;;21.80;91.60;;;;;;5061986;28;20197;-63
2022/05/21 06:44:07;;;;;;;1.60;1.38;;;21.80;90.80;;;;;;5051531;28;20174;-64
2022/05/21 06:46:33;;;;;;;2.42;1.10;;;21.70;90.70;;;;;;5051410;28;20260;-64
2022/05/21 06:48:58;;;;;;;1.45;1.05;;;21.30;87.80;;;;;;5051521;28;20800;-64
2022/05/21 06:51:24;;;;;;;1.25;1.15;;;21.70;89.40;;;;;;5054885;28;20185;-68
2022/05/21 06:53:50;;;;;;;1.90;1.20;;;22.00;85.80;;;;;;5071695;28;20168;-67
2022/05/21 06:56:16;;;;;;;2.22;1.33;;;21.70;82.90;;;;;;5062342;28;20212;-67
2022/05/21 06:58:42;;;;;;;1.73;1.10;;;21.50;84.20;;;;;;5051494;28;20237;-67
2022/05/21 07:01:09;;;;;;;1.65;1.30;;;21.30;84.20;;;;;;5068208;28;20672;-66
2022/05/21 07:03:35;;;;;;;2.08;1.35;;;21.50;84.80;;;;;;5071422;28;20189;-67
2022/05/21 07:08:45;;;;;;;4.05;1.52;;;22.50;83.90;;;;;;5070297;28;20242;-67
2022/05/21 07:11:10;;;;;;;3.58;1.40;;;22.70;80.90;;;;;;5075189;28;20181;-67
2022/05/21 07:13:36;;;;;;;5.45;1.90;;;22.00;82.70;;;;;;5075092;28;20279;-68
2022/05/21 07:16:01;;;;;;;1.58;1.40;;;21.60;85.20;;;;;;5075208;28;20655;-67
2022/05/21 07:18:27;;;;;;;3.17;1.50;;;21.30;86.50;;;;;;5073668;28;20228;-67
2022/05/21 07:20:54;;;;;;;2.05;1.40;;;20.80;88.20;;;;;;5068499;28;20193;-67
2022/05/21 07:23:21;;;;;;;2.35;1.48;;;20.80;89.30;;;;;;5063167;28;20568;-68
2022/05/21 07:25:49;;;;;;;23.83;16.65;;;21.00;89.00;;;;;;5060643;28;20177;-65
2022/05/21 07:28:16;;;;;;;8.93;5.88;;;21.70;89.60;;;;;;5056606;28;20181;-67
2022/05/21 07:30:44;;;;;;;6.95;5.13;;;22.70;87.00;;;;;;5067064;28;20228;-66
2022/05/21 07:33:15;;;;;;;8.88;5.88;;;23.90;83.20;;;;;;5074862;28;20192;-67
2022/05/21 07:35:41;;;;;;;9.35;5.75;;;24.00;80.80;;;;;;5065325;28;20192;-66
2022/05/21 07:38:09;;;;;;;4.85;2.63;;;23.50;83.20;;;;;;5059102;28;20547;-67
2022/05/21 07:40:36;;;;;;;5.13;3.65;;;23.30;82.30;;;;;;5066960;28;20213;-66
2022/05/21 07:43:13;;;;;;;7.40;4.40;;;22.70;81.40;;;;;;5057405;28;20190;-65
2022/05/21 07:45:39;;;;;;;17.70;11.43;;;23.20;86.20;;;;;;5035454;28;20205;-66
2022/05/21 07:48:13;;;;;;;3.53;2.38;;;23.80;80.90;;;;;;5041474;28;20227;-66
2022/05/21 07:50:40;;;;;;;3.75;2.25;;;23.90;78.80;;;;;;5055239;28;20591;-64
2022/05/21 07:53:13;;;;;;;7.03;4.72;;;23.70;77.90;;;;;;5086489;28;20432;-64
2022/05/21 07:55:43;;;;;;;5.78;3.90;;;23.20;81.90;;;;;;5055091;28;20225;-65
2022/05/21 07:58:09;;;;;;;5.68;3.60;;;23.20;81.70;;;;;;5054441;28;20184;-66
2022/05/21 08:00:35;;;;;;;3.35;1.85;;;22.80;82.50;;;;;;5055898;28;20300;-67
2022/05/21 08:03:00;;;;;;;3.10;1.98;;;22.20;81.50;;;;;;5055060;28;20573;-65
2022/05/21 08:05:26;;;;;;;27.40;16.05;;;21.80;84.10;;;;;;5055212;28;20204;-66
2022/05/21 08:07:52;;;;;;;9.02;6.80;;;21.50;86.10;;;;;;5055558;28;20177;-65
2022/05/21 08:10:19;;;;;;;4.38;3.28;;;21.40;84.20;;;;;;5054433;28;20185;-65
2022/05/21 08:12:45;;;;;;;3.50;3.00;;;21.50;86.20;;;;;;5054794;28;20231;-65
2022/05/21 08:15:11;;;;;;;5.55;2.60;;;21.20;87.00;;;;;;5054771;28;20260;-65
2022/05/21 08:17:36;;;;;;;2.55;1.83;;;20.80;87.40;;;;;;5054766;28;20256;-64
2022/05/21 08:20:04;;;;;;;3.58;2.67;;;20.40;89.70;;;;;;5054087;28;20217;-67
2022/05/21 08:27:57;;;;;;;9.35;6.03;;;20.40;90.90;;;;;;5057124;28;20208;-71
2022/05/21 08:30:24;;;;;;;8.50;5.72;;;20.70;90.90;;;;;;5057044;28;20624;-75
2022/05/21 08:32:49;;;;;;;4.40;3.15;;;21.00;88.90;;;;;;5056827;28;20201;-74
2022/05/21 08:35:15;;;;;;;4.90;3.13;;;21.70;86.00;;;;;;5057610;28;20185;-77
2022/05/21 08:37:40;;;;;;;2.55;1.80;;;22.40;86.10;;;;;;5056752;28;20248;-72
2022/05/21 08:40:06;;;;;;;1.97;1.80;;;23.10;85.10;;;;;;5055728;28;20921;-72
2022/05/21 08:42:38;;;;;;;3.70;1.40;;;23.50;80.80;;;;;;5056536;28;20185;-71
2022/05/21 08:45:19;;;;;;;4.22;1.77;;;23.50;80.40;;;;;;5052762;28;20185;-77
2022/05/21 08:47:49;;;;;;;2.65;1.50;;;23.80;78.30;;;;;;5055093;28;20423;-73
2022/05/21 08:50:20;;;;;;;3.00;1.50;;;23.70;76.70;;;;;;5042938;28;20179;-73
2022/05/21 08:52:49;;;;;;;2.58;1.48;;;24.10;77.10;;;;;;5041353;28;20172;-73
2022/05/21 08:55:19;;;;;;;5.65;4.53;;;23.70;78.50;;;;;;5056883;28;20206;-73
2022/05/21 08:57:49;;;;;;;23.73;13.93;;;23.60;77.70;;;;;;5058632;28;20580;-72
2022/05/21 09:00:33;;;;;;;31.85;17.95;;;23.70;76.00;;;;;;5070402;28;20255;-69
2022/05/21 09:03:00;;;;;;;18.65;11.88;;;23.80;76.10;;;;;;5052588;28;20260;-72
2022/05/21 09:05:26;;;;;;;28.60;17.40;;;23.50;77.40;;;;;;5069157;28;20180;-74
2022/05/21 09:08:19;;;;;;;3.85;2.97;;;23.70;78.90;;;;;;5066721;28;20185;-70
2022/05/21 09:10:45;;;;;;;4.63;2.60;;;24.20;74.90;;;;;;5052594;28;20220;-67
2022/05/21 09:13:20;;;;;;;2.72;1.90;;;24.90;73.30;;;;;;5072502;28;20208;-67
2022/05/21 09:18:31;;;;;;;57.95;36.20;;;24.30;73.20;;;;;;5072862;28;20752;-67
2022/05/21 09:21:00;;;;;;;27.40;17.13;;;24.40;73.40;;;;;;5064013;28;20281;-67
2022/05/21 09:24:01;;;;;;;3.28;2.60;;;24.50;74.30;;;;;;5052826;28;20628;-66
2022/05/21 09:26:28;;;;;;;6.43;2.72;;;24.60;71.90;;;;;;5044142;28;20207;-66
2022/05/21 09:29:25;;;;;;;7.18;5.28;;;24.80;70.70;;;;;;5052705;28;20578;-67
2022/05/21 09:31:53;;;;;;;8.77;4.32;;;25.00;72.80;;;;;;5042519;28;20181;-66
2022/05/21 09:34:29;;;;;;;5.55;3.38;;;24.80;70.40;;;;;;5054920;28;20181;-66
2022/05/21 09:36:56;;;;;;;50.50;30.00;;;24.50;72.00;;;;;;5051525;28;20187;-66
2022/05/21 09:39:39;;;;;;;26.05;17.30;;;24.70;73.30;;;;;;5054647;28;20317;-66
2022/05/21 09:45:24;;;;;;;5.35;2.55;;;24.70;69.60;;;;;;5056480;28;20228;-67
2022/05/21 09:48:05;;;;;;;4.75;2.40;;;25.10;72.40;;;;;;5052209;28;20600;-67
2022/05/21 09:50:42;;;;;;;2.28;1.80;;;25.50;70.50;;;;;;5052240;28;20181;-67
2022/05/21 09:53:29;;;;;;;7.20;1.77;;;25.70;67.60;;;;;;5052123;28;20184;-67
2022/05/21 09:56:13;;;;;;;1.45;1.35;;;25.70;68.20;;;;;;5054504;28;20652;-67
2022/05/21 09:58:41;;;;;;;2.97;1.30;;;25.70;68.10;;;;;;5032439;28;20185;-67
2022/05/21 10:01:08;;;;;;;4.65;1.80;;;25.60;67.60;;;;;;5051003;28;20181;-67
2022/05/21 10:03:36;;;;;;;37.97;3.50;;;25.30;67.90;;;;;;5051919;28;20286;-68
2022/05/21 10:06:17;;;;;;;4.72;1.30;;;25.40;67.70;;;;;;5065708;28;20214;-66
2022/05/21 10:11:38;;;;;;;9.82;1.60;;;25.80;67.50;;;;;;5068711;28;20242;-66
2022/05/21 10:14:08;;;;;;;3.53;1.38;;;26.10;66.70;;;;;;5032083;28;20240;-66
2022/05/21 10:16:37;;;;;;;4.20;1.50;;;26.20;64.20;;;;;;5065347;28;20252;-66
2022/05/21 10:19:30;;;;;;;2.40;0.90;;;26.30;65.00;;;;;;5051357;28;20216;-66
2022/05/21 10:22:41;;;;;;;29.15;19.13;;;26.70;62.70;;;;;;5065208;28;20668;-68
2022/05/21 10:25:17;;;;;;;12.80;8.35;;;26.40;61.40;;;;;;5010955;28;20206;-66
2022/05/21 10:28:13;;;;;;;7.13;4.72;;;25.70;64.20;;;;;;5007671;28;20229;-66
2022/05/21 10:31:00;;;;;;;9.18;6.38;;;25.80;64.30;;;;;;5031865;28;20240;-66
2022/05/21 10:33:45;;;;;;;23.80;15.45;;;25.60;62.60;;;;;;5032024;28;20197;-66
2022/05/21 10:36:34;;;;;;;27.58;17.25;;;25.30;64.20;;;;;;5043685;28;20222;-66
2022/05/21 10:39:04;;;;;;;11.02;8.00;;;25.20;65.20;;;;;;5071707;28;20216;-66
2022/05/21 10:41:39;;;;;;;9.60;6.13;;;25.10;64.90;;;;;;5064922;28;20173;-66
2022/05/21 10:44:26;;;;;;;8.68;6.40;;;24.50;64.10;;;;;;5071444;28;20168;-66
2022/05/21 10:47:01;;;;;;;7.68;4.25;;;24.30;68.10;;;;;;5065235;28;20180;-66
2022/05/21 10:49:40;;;;;;;6.65;3.80;;;24.40;67.60;;;;;;5071758;28;20265;-67
2022/05/21 10:52:27;;;;;;;3.20;1.63;;;24.70;68.20;;;;;;5064615;28;20177;-66
2022/05/21 10:54:59;;;;;;;6.20;1.60;;;25.10;67.00;;;;;;5051160;28;20181;-67
2022/05/21 10:57:36;;;;;;;8.43;5.38;;;25.10;65.20;;;;;;5061947;28;20555;-67
2022/05/21 11:00:25;;;;;;;2.45;1.80;;;24.60;66.00;;;;;;5067297;28;20410;-66
2022/05/21 11:02:54;;;;;;;3.75;1.90;;;24.10;65.90;;;;;;5065205;28;20180;-67
2022/05/21 11:05:31;;;;;;;3.88;1.50;;;24.10;68.00;;;;;;5065287;28;20186;-66
2022/05/21 11:08:10;;;;;;;2.80;1.45;;;24.30;68.80;;;;;;5050451;28;20245;-67
2022/05/21 11:10:59;;;;;;;2.67;1.33;;;24.90;67.40;;;;;;5052851;28;20181;-66
2022/05/21 11:13:45;;;;;;;2.95;1.40;;;25.20;65.40;;;;;;5051537;28;20230;-67
2022/05/21 11:16:17;;;;;;;1.63;1.02;;;25.50;64.30;;;;;;5054783;28;20201;-67
2022/05/21 11:18:59;;;;;;;1.17;1.00;;;25.50;65.60;;;;;;5071610;28;20176;-66
2022/05/21 11:21:58;;;;;;;2.60;1.48;;;25.30;65.00;;;;;;5057468;28;20192;-67
2022/05/21 11:24:45;;;;;;;2.33;1.15;;;25.30;64.00;;;;;;5051287;28;20224;-66
2022/05/21 11:27:22;;;;;;;4.43;1.17;;;25.40;64.30;;;;;;5051923;28;20518;-67
2022/05/21 11:30:04;;;;;;;2.72;1.08;;;25.50;64.10;;;;;;5051471;28;20272;-67
2022/05/21 11:38:41;;;;;;;5.05;1.13;;;25.80;61.70;;;;;;5051664;28;20184;-67
2022/05/21 11:41:30;;;;;;;1.55;1.10;;;25.60;60.70;;;;;;5050978;28;20194;-66
2022/05/21 11:46:54;;;;;;;2.65;0.90;;;25.10;63.60;;;;;;5063526;28;20199;-65
2022/05/21 11:49:26;;;;;;;1.30;1.00;;;25.30;61.20;;;;;;5062569;28;20184;-68
2022/05/21 11:51:52;;;;;;;2.45;1.05;;;25.60;61.40;;;;;;5058717;28;20176;-67
2022/05/21 11:54:47;;;;;;;2.70;1.00;;;25.90;62.00;;;;;;5063482;28;20601;-65
2022/05/21 11:57:33;;;;;;;3.45;1.08;;;25.80;62.40;;;;;;5055662;28;20185;-66
2022/05/21 12:00:00;;;;;;;1.65;0.90;;;25.50;61.10;;;;;;5071289;28;20575;-66
2022/05/21 12:02:28;;;;;;;1.73;1.00;;;25.50;60.90;;;;;;5057401;28;20189;-65
2022/05/21 12:05:02;;;;;;;2.25;1.80;;;25.40;60.10;;;;;;5070102;28;20341;-65
2022/05/21 12:07:48;;;;;;;2.00;1.42;;;25.70;62.30;;;;;;5053521;28;20270;-65
2022/05/21 12:10:24;;;;;;;2.03;1.45;;;25.60;61.20;;;;;;5071791;28;20184;-65
2022/05/21 12:13:16;;;;;;;2.15;0.90;;;25.70;61.20;;;;;;5066130;28;20181;-66
2022/05/21 12:15:53;;;;;;;3.45;1.00;;;25.80;61.50;;;;;;5054122;28;20196;-70
2022/05/21 12:18:53;;;;;;;1.92;0.90;;;25.90;60.50;;;;;;5065347;28;20254;-67
2022/05/21 12:21:36;;;;;;;4.97;1.30;;;25.60;60.50;;;;;;5065249;28;20600;-71
2022/05/21 12:24:08;;;;;;;9.18;6.05;;;25.50;60.30;;;;;;5061541;28;20182;-65
2022/05/21 12:26:38;;;;;;;38.53;27.27;;;25.50;61.00;;;;;;5055254;28;20267;-68
2022/05/21 12:29:19;;;;;;;5.18;3.42;;;25.90;61.40;;;;;;5063858;28;20213;-68
2022/05/21 12:31:46;;;;;;;2.38;1.48;;;26.30;60.00;;;;;;5065730;28;20177;-68
2022/05/21 12:34:19;;;;;;;5.82;1.20;;;25.90;58.40;;;;;;5063822;28;20177;-68
2022/05/21 12:37:00;;;;;;;3.45;2.45;;;25.40;59.40;;;;;;5064889;28;20177;-68
2022/05/21 12:39:32;;;;;;;30.00;19.98;;;25.10;59.70;;;;;;5056399;28;20205;-68
2022/05/21 12:42:06;;;;;;;5.10;2.88;;;25.00;59.80;;;;;;5065707;28;20185;-69
2022/05/21 12:44:45;;;;;;;1.30;1.10;;;25.10;61.70;;;;;;5055896;28;20513;-68
2022/05/21 12:47:19;;;;;;;17.35;11.25;;;25.20;61.80;;;;;;5066858;28;20180;-68
2022/05/21 12:49:48;;;;;;;3.88;1.30;;;24.70;60.50;;;;;;5073572;28;20523;-69
2022/05/21 12:52:48;;;;;;;2.10;1.33;;;24.80;61.00;;;;;;5073111;28;20543;-68
2022/05/21 12:55:22;;;;;;;2.03;1.15;;;25.00;60.30;;;;;;5073428;28;20180;-70
2022/05/21 12:57:52;;;;;;;2.80;1.65;;;25.00;59.70;;;;;;5072305;28;20242;-67
2022/05/21 13:00:20;;;;;;;2.80;1.40;;;25.10;60.80;;;;;;5071517;28;20691;-66
2022/05/21 13:02:50;;;;;;;3.70;0.90;;;25.20;59.90;;;;;;5070311;28;20184;-66
2022/05/21 13:05:20;;;;;;;1.70;0.80;;;25.20;60.00;;;;;;5053092;28;20178;-66
2022/05/21 13:07:48;;;;;;;2.08;0.98;;;25.40;60.00;;;;;;5052990;28;20529;-66
2022/05/21 13:10:29;;;;;;;1.17;0.80;;;25.50;60.00;;;;;;5053192;28;20193;-66
2022/05/21 13:13:08;;;;;;;0.90;0.80;;;25.70;58.40;;;;;;5053196;28;20185;-66
2022/05/21 13:15:40;;;;;;;2.00;0.70;;;25.70;58.10;;;;;;5053230;28;20178;-65
2022/05/21 13:18:33;;;;;;;1.38;0.85;;;25.70;59.30;;;;;;5052937;28;20225;-65
2022/05/21 13:21:26;;;;;;;3.25;0.98;;;25.70;60.00;;;;;;5052763;28;20213;-66
2022/05/21 13:24:06;;;;;;;1.77;0.85;;;25.40;57.90;;;;;;5053161;28;20209;-66
2022/05/21 13:26:35;;;;;;;2.40;0.82;;;25.20;58.90;;;;;;5046652;28;20235;-67
2022/05/21 13:29:20;;;;;;;1.42;0.70;;;25.10;58.90;;;;;;5052657;28;20233;-66
2022/05/21 13:31:48;;;;;;;2.35;0.80;;;25.30;60.50;;;;;;5051466;28;20272;-66
2022/05/21 13:34:23;;;;;;;2.15;0.95;;;25.50;58.50;;;;;;5052719;28;20182;-66
2022/05/21 13:36:59;;;;;;;1.92;0.90;;;25.60;58.50;;;;;;5052776;28;20503;-67